sensor_id;sensor_type;location;lat;lon;timestamp;pressure;altitude;pressure_sealevel;temperature;humidity
77583;BME280;66726;52.388;9.986;2023-07-22T00:02:05;100631.94;;;15.55;71.62
77583;BME280;66726;52.388;9.986;2023-07-22T00:04:37;100636.13;;;15.57;71.03
77583;BME280;66726;52.388;9.986;2023-07-22T00:07:08;100627.50;;;15.47;71.33
77583;BME280;66726;52.388;9.986;2023-07-22T00:09:40;100624.25;;;15.52;70.41
77583;BME280;66726;52.388;9.986;2023-07-22T00:12:14;100630.59;;;15.44;71.06
77583;BME280;66726;52.388;9.986;2023-07-22T00:14:46;100630.47;;;15.52;70.92
77583;BME280;66726;52.388;9.986;2023-07-22T00:17:17;100630.59;;;15.44;71.15
77583;BME280;66726;52.388;9.986;2023-07-22T00:19:49;100635.56;;;15.41;71.31
77583;BME280;66726;52.388;9.986;2023-07-22T00:22:23;100631.34;;;15.38;70.90
77583;BME280;66726;52.388;9.986;2023-07-22T00:24:57;100633.94;;;15.46;71.10
77583;BME280;66726;52.388;9.986;2023-07-22T00:27:31;100632.84;;;15.41;71.12
77583;BME280;66726;52.388;9.986;2023-07-22T00:30:03;100640.66;;;15.50;71.07
77583;BME280;66726;52.388;9.986;2023-07-22T00:32:36;100629.84;;;15.50;70.32
77583;BME280;66726;52.388;9.986;2023-07-22T00:35:10;100634.91;;;15.39;71.38
77583;BME280;66726;52.388;9.986;2023-07-22T00:37:42;100635.56;;;15.41;70.64
77583;BME280;66726;52.388;9.986;2023-07-22T00:40:15;100634.31;;;15.43;70.38
77583;BME280;66726;52.388;9.986;2023-07-22T00:42:49;100643.25;;;15.44;71.11
77583;BME280;66726;52.388;9.986;2023-07-22T00:45:21;100641.31;;;15.38;70.32
77583;BME280;66726;52.388;9.986;2023-07-22T00:47:52;100643.94;;;15.31;70.53
77583;BME280;66726;52.388;9.986;2023-07-22T00:50:26;100653.59;;;15.19;71.27
77583;BME280;66726;52.388;9.986;2023-07-22T00:52:58;100645.06;;;15.15;71.47
77583;BME280;66726;52.388;9.986;2023-07-22T00:55:30;100643.44;;;15.21;71.05
77583;BME280;66726;52.388;9.986;2023-07-22T00:58:05;100636.25;;;15.28;71.32
77583;BME280;66726;52.388;9.986;2023-07-22T01:00:37;100645.75;;;15.24;70.82
77583;BME280;66726;52.388;9.986;2023-07-22T01:03:09;100644.59;;;15.12;71.74
77583;BME280;66726;52.388;9.986;2023-07-22T01:05:42;100640.22;;;15.11;72.00
77583;BME280;66726;52.388;9.986;2023-07-22T01:08:14;100646.97;;;15.21;70.73
77583;BME280;66726;52.388;9.986;2023-07-22T01:10:46;100637.53;;;15.11;70.75
77583;BME280;66726;52.388;9.986;2023-07-22T01:13:20;100633.19;;;15.10;71.05
77583;BME280;66726;52.388;9.986;2023-07-22T01:15:52;100640.22;;;15.11;70.84
77583;BME280;66726;52.388;9.986;2023-07-22T01:18:24;100636.00;;;15.02;71.66
77583;BME280;66726;52.388;9.986;2023-07-22T01:20:56;100631.38;;;14.96;71.67
77583;BME280;66726;52.388;9.986;2023-07-22T01:23:29;100631.44;;;15.02;71.18
77583;BME280;66726;52.388;9.986;2023-07-22T01:26:03;100638.06;;;15.00;71.15
77583;BME280;66726;52.388;9.986;2023-07-22T01:28:38;100633.41;;;14.94;71.68
77583;BME280;66726;52.388;9.986;2023-07-22T01:31:10;100636.31;;;14.92;71.73
77583;BME280;66726;52.388;9.986;2023-07-22T01:33:42;100636.91;;;14.73;71.87
77583;BME280;66726;52.388;9.986;2023-07-22T01:36:15;100633.28;;;14.66;72.58
77583;BME280;66726;52.388;9.986;2023-07-22T01:38:49;100634.03;;;14.75;72.04
77583;BME280;66726;52.388;9.986;2023-07-22T01:41:21;100631.59;;;14.80;71.69
77583;BME280;66726;52.388;9.986;2023-07-22T01:43:53;100630.53;;;14.59;73.20
77583;BME280;66726;52.388;9.986;2023-07-22T01:46:25;100632.66;;;14.64;72.13
77583;BME280;66726;52.388;9.986;2023-07-22T01:48:59;100635.53;;;14.62;72.52
77583;BME280;66726;52.388;9.986;2023-07-22T01:51:31;100627.91;;;14.66;71.94
77583;BME280;66726;52.388;9.986;2023-07-22T01:54:04;100634.13;;;14.66;71.99
77583;BME280;66726;52.388;9.986;2023-07-22T01:56:36;100636.56;;;14.61;72.22
77583;BME280;66726;52.388;9.986;2023-07-22T01:59:08;100635.38;;;14.49;72.88
77583;BME280;66726;52.388;9.986;2023-07-22T02:01:40;100628.81;;;14.37;73.29
77583;BME280;66726;52.388;9.986;2023-07-22T02:04:12;100639.66;;;14.44;72.71
77583;BME280;66726;52.388;9.986;2023-07-22T02:06:45;100639.47;;;14.45;72.78
77583;BME280;66726;52.388;9.986;2023-07-22T02:09:19;100639.75;;;14.50;72.73
77583;BME280;66726;52.388;9.986;2023-07-22T02:11:51;100635.66;;;14.54;71.99
77583;BME280;66726;52.388;9.986;2023-07-22T02:14:23;100636.03;;;14.51;72.40
77583;BME280;66726;52.388;9.986;2023-07-22T02:16:55;100645.50;;;14.62;71.73
77583;BME280;66726;52.388;9.986;2023-07-22T02:19:27;100651.53;;;14.64;71.92
77583;BME280;66726;52.388;9.986;2023-07-22T02:21:59;100643.97;;;14.74;71.42
77583;BME280;66726;52.388;9.986;2023-07-22T02:24:32;100639.66;;;14.58;71.83
77583;BME280;66726;52.388;9.986;2023-07-22T02:27:04;100636.13;;;14.58;71.78
77583;BME280;66726;52.388;9.986;2023-07-22T02:29:36;100644.66;;;14.61;72.31
77583;BME280;66726;52.388;9.986;2023-07-22T02:32:10;100644.03;;;14.45;72.53
77583;BME280;66726;52.388;9.986;2023-07-22T02:34:41;100655.63;;;14.45;72.52
77583;BME280;66726;52.388;9.986;2023-07-22T02:37:13;100654.06;;;14.51;72.27
77583;BME280;66726;52.388;9.986;2023-07-22T02:39:47;100647.75;;;14.44;72.76
77583;BME280;66726;52.388;9.986;2023-07-22T02:42:20;100652.84;;;14.24;73.56
77583;BME280;66726;52.388;9.986;2023-07-22T02:44:54;100654.69;;;14.23;73.65
77583;BME280;66726;52.388;9.986;2023-07-22T02:47:27;100656.53;;;14.23;73.76
77583;BME280;66726;52.388;9.986;2023-07-22T02:49:59;100659.88;;;14.25;73.70
77583;BME280;66726;52.388;9.986;2023-07-22T02:52:31;100646.31;;;14.33;73.03
77583;BME280;66726;52.388;9.986;2023-07-22T02:55:14;100655.06;;;14.35;72.83
77583;BME280;66726;52.388;9.986;2023-07-22T02:57:47;100655.53;;;14.39;72.92
77583;BME280;66726;52.388;9.986;2023-07-22T03:00:21;100662.03;;;14.30;73.43
77583;BME280;66726;52.388;9.986;2023-07-22T03:02:56;100664.06;;;14.28;73.65
77583;BME280;66726;52.388;9.986;2023-07-22T03:05:32;100661.38;;;14.13;74.14
77583;BME280;66726;52.388;9.986;2023-07-22T03:08:05;100661.81;;;14.02;75.58
77583;BME280;66726;52.388;9.986;2023-07-22T03:10:38;100665.63;;;13.93;76.06
77583;BME280;66726;52.388;9.986;2023-07-22T03:13:10;100669.03;;;13.49;77.91
77583;BME280;66726;52.388;9.986;2023-07-22T03:15:42;100667.38;;;13.48;77.78
77583;BME280;66726;52.388;9.986;2023-07-22T03:18:15;100669.97;;;13.42;78.51
77583;BME280;66726;52.388;9.986;2023-07-22T03:20:47;100662.13;;;13.32;79.80
77583;BME280;66726;52.388;9.986;2023-07-22T03:23:19;100666.22;;;13.28;79.50
77583;BME280;66726;52.388;9.986;2023-07-22T03:25:53;100681.03;;;13.24;80.07
77583;BME280;66726;52.388;9.986;2023-07-22T03:28:25;100676.66;;;13.23;79.62
77583;BME280;66726;52.388;9.986;2023-07-22T03:30:57;100675.81;;;13.23;79.76
77583;BME280;66726;52.388;9.986;2023-07-22T03:33:29;100678.00;;;13.19;80.79
77583;BME280;66726;52.388;9.986;2023-07-22T03:36:01;100681.16;;;13.00;81.25
77583;BME280;66726;52.388;9.986;2023-07-22T03:38:33;100690.16;;;13.07;81.34
77583;BME280;66726;52.388;9.986;2023-07-22T03:41:06;100688.38;;;12.99;80.45
77583;BME280;66726;52.388;9.986;2023-07-22T03:43:38;100686.56;;;12.92;81.85
77583;BME280;66726;52.388;9.986;2023-07-22T03:46:10;100693.59;;;12.93;81.29
77583;BME280;66726;52.388;9.986;2023-07-22T03:48:42;100692.91;;;12.99;80.47
77583;BME280;66726;52.388;9.986;2023-07-22T03:51:14;100695.91;;;13.04;81.16
77583;BME280;66726;52.388;9.986;2023-07-22T03:53:50;100700.44;;;13.03;80.44
77583;BME280;66726;52.388;9.986;2023-07-22T03:56:24;100702.94;;;13.05;80.49
77583;BME280;66726;52.388;9.986;2023-07-22T03:58:57;100706.63;;;13.12;80.59
77583;BME280;66726;52.388;9.986;2023-07-22T04:01:29;100700.59;;;13.10;80.64
77583;BME280;66726;52.388;9.986;2023-07-22T04:04:00;100694.72;;;13.06;80.50
77583;BME280;66726;52.388;9.986;2023-07-22T04:06:32;100700.91;;;13.07;80.80
77583;BME280;66726;52.388;9.986;2023-07-22T04:09:04;100697.56;;;13.05;80.45
77583;BME280;66726;52.388;9.986;2023-07-22T04:11:37;100707.78;;;13.17;80.53
77583;BME280;66726;52.388;9.986;2023-07-22T04:14:09;100698.22;;;13.15;80.54
77583;BME280;66726;52.388;9.986;2023-07-22T04:16:42;100696.19;;;13.17;80.71
77583;BME280;66726;52.388;9.986;2023-07-22T04:19:14;100694.22;;;13.11;80.17
77583;BME280;66726;52.388;9.986;2023-07-22T04:21:47;100701.44;;;13.10;80.96
77583;BME280;66726;52.388;9.986;2023-07-22T04:24:19;100703.94;;;13.12;80.68
77583;BME280;66726;52.388;9.986;2023-07-22T04:26:52;100706.41;;;13.22;79.98
77583;BME280;66726;52.388;9.986;2023-07-22T04:29:24;100699.84;;;13.24;79.59
77583;BME280;66726;52.388;9.986;2023-07-22T04:31:59;100702.34;;;13.26;80.04
77583;BME280;66726;52.388;9.986;2023-07-22T04:34:34;100698.09;;;13.31;79.32
77583;BME280;66726;52.388;9.986;2023-07-22T04:37:07;100702.34;;;13.26;79.21
77583;BME280;66726;52.388;9.986;2023-07-22T04:39:40;100702.75;;;13.37;79.16
77583;BME280;66726;52.388;9.986;2023-07-22T04:42:13;100699.44;;;13.35;nan
77583;BME280;66726;52.388;9.986;2023-07-22T04:44:45;100702.59;;;13.39;78.63
77583;BME280;66726;52.388;9.986;2023-07-22T04:47:17;100705.22;;;13.47;78.77
77583;BME280;66726;52.388;9.986;2023-07-22T04:49:49;100704.56;;;13.45;78.95
77583;BME280;66726;52.388;9.986;2023-07-22T04:52:21;100710.00;;;13.37;78.60
77583;BME280;66726;52.388;9.986;2023-07-22T04:54:53;100714.16;;;13.39;78.84
77583;BME280;66726;52.388;9.986;2023-07-22T04:57:26;100712.78;;;13.43;78.76
77583;BME280;66726;52.388;9.986;2023-07-22T04:59:58;100713.63;;;13.44;78.73
77583;BME280;66726;52.388;9.986;2023-07-22T05:02:30;100722.19;;;13.47;78.38
77583;BME280;66726;52.388;9.986;2023-07-22T05:05:02;100722.66;;;13.51;77.52
77583;BME280;66726;52.388;9.986;2023-07-22T05:07:34;100717.13;;;13.52;78.36
77583;BME280;66726;52.388;9.986;2023-07-22T05:10:08;100727.94;;;13.44;78.11
77583;BME280;66726;52.388;9.986;2023-07-22T05:12:44;100722.50;;;13.52;78.67
77583;BME280;66726;52.388;9.986;2023-07-22T05:15:16;100716.28;;;13.52;77.70
77583;BME280;66726;52.388;9.986;2023-07-22T05:17:48;100725.00;;;13.54;78.57
77583;BME280;66726;52.388;9.986;2023-07-22T05:20:20;100725.53;;;13.49;78.20
77583;BME280;66726;52.388;9.986;2023-07-22T05:22:52;100727.16;;;13.58;77.99
77583;BME280;66726;52.388;9.986;2023-07-22T05:25:24;100723.56;;;13.66;77.85
77583;BME280;66726;52.388;9.986;2023-07-22T05:27:57;100730.97;;;13.64;78.27
77583;BME280;66726;52.388;9.986;2023-07-22T05:30:29;100731.44;;;13.67;77.60
77583;BME280;66726;52.388;9.986;2023-07-22T05:33:06;100738.50;;;13.68;77.39
77583;BME280;66726;52.388;9.986;2023-07-22T05:35:37;100730.38;;;13.77;77.06
77583;BME280;66726;52.388;9.986;2023-07-22T05:38:09;100726.94;;;13.83;76.85
77583;BME280;66726;52.388;9.986;2023-07-22T05:40:41;100726.75;;;13.84;76.53
77583;BME280;66726;52.388;9.986;2023-07-22T05:43:15;100731.44;;;13.90;76.49
77583;BME280;66726;52.388;9.986;2023-07-22T05:45:48;100728.84;;;13.97;76.50
77583;BME280;66726;52.388;9.986;2023-07-22T05:48:20;100741.25;;;13.98;75.89
77583;BME280;66726;52.388;9.986;2023-07-22T05:50:52;100740.25;;;13.99;76.07
77583;BME280;66726;52.388;9.986;2023-07-22T05:53:24;100740.09;;;14.00;76.26
77583;BME280;66726;52.388;9.986;2023-07-22T05:55:56;100746.75;;;14.04;75.33
77583;BME280;66726;52.388;9.986;2023-07-22T05:58:29;100743.25;;;14.04;75.43
77583;BME280;66726;52.388;9.986;2023-07-22T06:01:01;100754.94;;;14.11;75.46
77583;BME280;66726;52.388;9.986;2023-07-22T06:03:33;100747.34;;;14.14;75.55
77583;BME280;66726;52.388;9.986;2023-07-22T06:06:05;100752.53;;;14.16;75.63
77583;BME280;66726;52.388;9.986;2023-07-22T06:08:36;100759.97;;;14.14;75.49
77583;BME280;66726;52.388;9.986;2023-07-22T06:11:09;100750.03;;;14.14;75.29
77583;BME280;66726;52.388;9.986;2023-07-22T06:13:42;100753.84;;;14.20;75.85
77583;BME280;66726;52.388;9.986;2023-07-22T06:16:14;100755.53;;;14.21;75.62
77583;BME280;66726;52.388;9.986;2023-07-22T06:18:46;100755.16;;;14.24;75.36
77583;BME280;66726;52.388;9.986;2023-07-22T06:21:18;100759.03;;;14.21;74.81
77583;BME280;66726;52.388;9.986;2023-07-22T06:23:49;100762.88;;;14.27;74.70
77583;BME280;66726;52.388;9.986;2023-07-22T06:26:21;100755.44;;;14.29;74.35
77583;BME280;66726;52.388;9.986;2023-07-22T06:28:55;100756.59;;;14.35;74.57
77583;BME280;66726;52.388;9.986;2023-07-22T06:31:27;100762.81;;;14.35;73.64
77583;BME280;66726;52.388;9.986;2023-07-22T06:34:01;100761.25;;;14.41;73.70
77583;BME280;66726;52.388;9.986;2023-07-22T06:36:33;100756.72;;;14.41;73.85
77583;BME280;66726;52.388;9.986;2023-07-22T06:39:05;100759.66;;;14.46;74.43
77583;BME280;66726;52.388;9.986;2023-07-22T06:41:37;100766.75;;;14.47;74.62
77583;BME280;66726;52.388;9.986;2023-07-22T06:44:10;100762.72;;;14.43;74.70
77583;BME280;66726;52.388;9.986;2023-07-22T06:46:42;100768.69;;;14.53;75.11
77583;BME280;66726;52.388;9.986;2023-07-22T06:49:15;100767.94;;;14.59;74.71
77583;BME280;66726;52.388;9.986;2023-07-22T06:51:47;100771.09;;;14.63;74.25
77583;BME280;66726;52.388;9.986;2023-07-22T06:54:18;100770.63;;;14.59;73.86
77583;BME280;66726;52.388;9.986;2023-07-22T06:56:50;100764.06;;;14.62;73.78
77583;BME280;66726;52.388;9.986;2023-07-22T06:59:24;100773.78;;;14.63;73.46
77583;BME280;66726;52.388;9.986;2023-07-22T07:01:56;100774.09;;;14.68;73.68
77583;BME280;66726;52.388;9.986;2023-07-22T07:04:28;100777.88;;;14.73;73.64
77583;BME280;66726;52.388;9.986;2023-07-22T07:07:00;100775.28;;;14.80;73.51
77583;BME280;66726;52.388;9.986;2023-07-22T07:09:33;100774.34;;;14.88;74.24
77583;BME280;66726;52.388;9.986;2023-07-22T07:12:07;100769.88;;;14.95;73.34
77583;BME280;66726;52.388;9.986;2023-07-22T07:14:41;100759.00;;;15.03;72.96
77583;BME280;66726;52.388;9.986;2023-07-22T07:17:13;100765.03;;;15.05;72.84
77583;BME280;66726;52.388;9.986;2023-07-22T07:19:45;100767.63;;;15.13;72.20
77583;BME280;66726;52.388;9.986;2023-07-22T07:22:17;100771.41;;;15.18;72.53
77583;BME280;66726;52.388;9.986;2023-07-22T07:24:49;100768.16;;;15.23;72.62
77583;BME280;66726;52.388;9.986;2023-07-22T07:27:21;100771.09;;;15.28;72.20
77583;BME280;66726;52.388;9.986;2023-07-22T07:29:54;100776.19;;;15.38;71.91
77583;BME280;66726;52.388;9.986;2023-07-22T07:32:26;100769.84;;;15.45;71.44
77583;BME280;66726;52.388;9.986;2023-07-22T07:34:58;100775.34;;;15.52;69.37
77583;BME280;66726;52.388;9.986;2023-07-22T07:37:31;100776.84;;;15.54;69.28
77583;BME280;66726;52.388;9.986;2023-07-22T07:40:03;100776.91;;;15.61;69.43
77583;BME280;66726;52.388;9.986;2023-07-22T07:42:35;100779.03;;;15.65;69.28
77583;BME280;66726;52.388;9.986;2023-07-22T07:45:11;100776.13;;;15.67;70.28
77583;BME280;66726;52.388;9.986;2023-07-22T07:47:44;100781.72;;;15.65;69.21
77583;BME280;66726;52.388;9.986;2023-07-22T07:50:16;100787.38;;;15.70;70.16
77583;BME280;66726;52.388;9.986;2023-07-22T07:52:47;100787.38;;;15.70;70.86
77583;BME280;66726;52.388;9.986;2023-07-22T07:55:19;100788.22;;;15.71;69.98
77583;BME280;66726;52.388;9.986;2023-07-22T07:57:51;100779.53;;;15.76;69.74
77583;BME280;66726;52.388;9.986;2023-07-22T08:00:25;100791.63;;;15.80;70.72
77583;BME280;66726;52.388;9.986;2023-07-22T08:02:56;100790.84;;;15.86;69.37
77583;BME280;66726;52.388;9.986;2023-07-22T08:05:29;100791.28;;;15.89;67.86
77583;BME280;66726;52.388;9.986;2023-07-22T08:08:01;100792.78;;;15.92;68.13
77583;BME280;66726;52.388;9.986;2023-07-22T08:10:33;100795.50;;;15.92;68.12
77583;BME280;66726;52.388;9.986;2023-07-22T08:13:05;100790.16;;;15.98;66.71
77583;BME280;66726;52.388;9.986;2023-07-22T08:15:38;100784.81;;;16.05;66.32
77583;BME280;66726;52.388;9.986;2023-07-22T08:18:09;100788.00;;;16.15;67.48
77583;BME280;66726;52.388;9.986;2023-07-22T08:20:41;100791.59;;;16.22;65.11
77583;BME280;66726;52.388;9.986;2023-07-22T08:23:13;100793.28;;;16.23;65.46
77583;BME280;66726;52.388;9.986;2023-07-22T08:25:45;100783.09;;;16.25;67.00
77583;BME280;66726;52.388;9.986;2023-07-22T08:28:17;100797.44;;;16.26;66.66
77583;BME280;66726;52.388;9.986;2023-07-22T08:30:53;100796.59;;;16.25;66.40
77583;BME280;66726;52.388;9.986;2023-07-22T08:33:26;100792.22;;;16.24;66.51
77583;BME280;66726;52.388;9.986;2023-07-22T08:36:11;100789.13;;;16.27;67.05
77583;BME280;66726;52.388;9.986;2023-07-22T08:38:43;100800.78;;;16.28;66.82
77583;BME280;66726;52.388;9.986;2023-07-22T08:41:18;100793.28;;;16.23;66.62
77583;BME280;66726;52.388;9.986;2023-07-22T08:43:52;100792.63;;;16.21;66.19
77583;BME280;66726;52.388;9.986;2023-07-22T08:46:30;100803.63;;;16.19;66.13
77583;BME280;66726;52.388;9.986;2023-07-22T08:49:05;100799.03;;;16.20;65.88
77583;BME280;66726;52.388;9.986;2023-07-22T08:51:39;100796.34;;;16.20;66.36
77583;BME280;66726;52.388;9.986;2023-07-22T08:54:12;100797.63;;;16.24;66.13
77583;BME280;66726;52.388;9.986;2023-07-22T08:56:46;100802.00;;;16.25;66.76
77583;BME280;66726;52.388;9.986;2023-07-22T08:59:19;100791.88;;;16.34;66.15
77583;BME280;66726;52.388;9.986;2023-07-22T09:01:53;100796.63;;;16.53;66.98
77583;BME280;66726;52.388;9.986;2023-07-22T09:04:26;100796.13;;;16.70;66.32
77583;BME280;66726;52.388;9.986;2023-07-22T09:06:58;100791.22;;;16.81;65.30
77583;BME280;66726;52.388;9.986;2023-07-22T09:09:30;100797.50;;;16.88;63.40
77583;BME280;66726;52.388;9.986;2023-07-22T09:12:04;100781.88;;;16.90;63.71
77583;BME280;66726;52.388;9.986;2023-07-22T09:14:38;100782.56;;;16.98;62.94
77583;BME280;66726;52.388;9.986;2023-07-22T09:17:11;100774.25;;;17.00;63.95
77583;BME280;66726;52.388;9.986;2023-07-22T09:19:43;100780.09;;;17.10;63.63
77583;BME280;66726;52.388;9.986;2023-07-22T09:22:18;100769.75;;;17.20;63.53
77583;BME280;66726;52.388;9.986;2023-07-22T09:24:50;100780.84;;;17.38;62.95
77583;BME280;66726;52.388;9.986;2023-07-22T09:27:36;100783.31;;;17.33;61.83
77583;BME280;66726;52.388;9.986;2023-07-22T09:30:28;100785.00;;;17.34;61.45
77583;BME280;66726;52.388;9.986;2023-07-22T09:33:03;100785.97;;;17.20;61.88
77583;BME280;66726;52.388;9.986;2023-07-22T09:35:46;100780.56;;;17.20;62.31
77583;BME280;66726;52.388;9.986;2023-07-22T09:38:23;100780.97;;;17.17;62.53
77583;BME280;66726;52.388;9.986;2023-07-22T09:40:56;100775.56;;;17.17;62.66
77583;BME280;66726;52.388;9.986;2023-07-22T09:43:29;100776.00;;;17.27;63.40
77583;BME280;66726;52.388;9.986;2023-07-22T09:46:10;100780.84;;;17.38;62.29
77583;BME280;66726;52.388;9.986;2023-07-22T09:48:47;100777.81;;;17.61;61.98
77583;BME280;66726;52.388;9.986;2023-07-22T09:51:19;100767.63;;;17.69;61.33
77583;BME280;66726;52.388;9.986;2023-07-22T09:54:03;100776.78;;;17.82;60.82
77583;BME280;66726;52.388;9.986;2023-07-22T09:56:45;100766.59;;;17.84;61.20
77583;BME280;66726;52.388;9.986;2023-07-22T09:59:19;100762.88;;;17.98;60.26
77583;BME280;66726;52.388;9.986;2023-07-22T10:01:54;100756.38;;;18.05;62.38
77583;BME280;66726;52.388;9.986;2023-07-22T10:04:34;100759.09;;;18.05;59.31
77583;BME280;66726;52.388;9.986;2023-07-22T10:07:09;100756.19;;;18.07;59.80
77583;BME280;66726;52.388;9.986;2023-07-22T10:09:47;100758.69;;;18.28;59.95
77583;BME280;66726;52.388;9.986;2023-07-22T10:12:21;100761.38;;;18.41;57.29
77583;BME280;66726;52.388;9.986;2023-07-22T10:14:55;100749.94;;;18.52;56.65
77583;BME280;66726;52.388;9.986;2023-07-22T10:17:29;100754.53;;;18.52;58.58
77583;BME280;66726;52.388;9.986;2023-07-22T10:20:03;100749.66;;;18.67;56.16
77583;BME280;66726;52.388;9.986;2023-07-22T10:22:39;100754.91;;;18.68;55.95
77583;BME280;66726;52.388;9.986;2023-07-22T10:25:14;100753.00;;;18.76;54.23
77583;BME280;66726;52.388;9.986;2023-07-22T10:27:47;100758.22;;;18.70;54.91
77583;BME280;66726;52.388;9.986;2023-07-22T10:30:20;100758.47;;;18.62;55.21
77583;BME280;66726;52.388;9.986;2023-07-22T10:32:55;100754.09;;;18.55;54.28
77583;BME280;66726;52.388;9.986;2023-07-22T10:35:43;100752.41;;;18.54;55.38
77583;BME280;66726;52.388;9.986;2023-07-22T10:38:17;100754.06;;;18.61;53.86
77583;BME280;66726;52.388;9.986;2023-07-22T10:40:52;100757.81;;;18.60;54.61
77583;BME280;66726;52.388;9.986;2023-07-22T10:43:30;100754.91;;;18.68;55.98
77583;BME280;66726;52.388;9.986;2023-07-22T10:46:08;100762.38;;;18.80;55.73
77583;BME280;66726;52.388;9.986;2023-07-22T10:48:42;100756.53;;;18.83;56.46
77583;BME280;66726;52.388;9.986;2023-07-22T10:51:17;100745.19;;;18.99;56.51
77583;BME280;66726;52.388;9.986;2023-07-22T10:53:50;100735.94;;;19.13;56.66
77583;BME280;66726;52.388;9.986;2023-07-22T10:56:23;100736.50;;;19.21;57.74
77583;BME280;66726;52.388;9.986;2023-07-22T10:59:03;100740.50;;;19.19;56.21
77583;BME280;66726;52.388;9.986;2023-07-22T11:01:39;100738.81;;;19.18;56.49
77583;BME280;66726;52.388;9.986;2023-07-22T11:04:24;100745.56;;;19.09;58.77
77583;BME280;66726;52.388;9.986;2023-07-22T11:07:14;100735.78;;;19.01;60.60
77583;BME280;66726;52.388;9.986;2023-07-22T11:09:47;100744.81;;;18.89;58.30
77583;BME280;66726;52.388;9.986;2023-07-22T11:12:20;100751.28;;;18.88;59.83
77583;BME280;66726;52.388;9.986;2023-07-22T11:15:01;100737.09;;;18.86;60.46
77583;BME280;66726;52.388;9.986;2023-07-22T11:17:34;100736.47;;;18.84;60.74
77583;BME280;66726;52.388;9.986;2023-07-22T11:20:07;100734.41;;;18.86;59.82
77583;BME280;66726;52.388;9.986;2023-07-22T11:22:42;100729.53;;;18.94;60.10
77583;BME280;66726;52.388;9.986;2023-07-22T11:25:20;100732.22;;;19.07;59.72
77583;BME280;66726;52.388;9.986;2023-07-22T11:27:52;100723.84;;;19.09;56.11
77583;BME280;66726;52.388;9.986;2023-07-22T11:30:28;100717.75;;;19.20;56.02
77583;BME280;66726;52.388;9.986;2023-07-22T11:33:01;100717.50;;;19.21;56.13
77583;BME280;66726;52.388;9.986;2023-07-22T11:35:33;100711.28;;;19.21;54.95
77583;BME280;66726;52.388;9.986;2023-07-22T11:38:06;100716.06;;;19.19;53.76
77583;BME280;66726;52.388;9.986;2023-07-22T11:40:38;100707.09;;;19.18;54.79
77583;BME280;66726;52.388;9.986;2023-07-22T11:43:10;100705.06;;;19.14;54.72
77583;BME280;66726;52.388;9.986;2023-07-22T11:45:42;100716.34;;;19.11;54.44
77583;BME280;66726;52.388;9.986;2023-07-22T11:48:16;100720.53;;;19.07;54.73
77583;BME280;66726;52.388;9.986;2023-07-22T11:50:48;100707.13;;;19.12;55.45
77583;BME280;66726;52.388;9.986;2023-07-22T11:53:21;100701.72;;;19.12;54.75
77583;BME280;66726;52.388;9.986;2023-07-22T11:55:58;100704.22;;;19.13;55.04
77583;BME280;66726;52.388;9.986;2023-07-22T11:58:33;100712.13;;;19.15;54.59
77583;BME280;66726;52.388;9.986;2023-07-22T12:01:13;100710.47;;;19.14;54.00
77583;BME280;66726;52.388;9.986;2023-07-22T12:03:46;100709.16;;;19.23;54.34
77583;BME280;66726;52.388;9.986;2023-07-22T12:06:18;100710.56;;;19.32;54.83
77583;BME280;66726;52.388;9.986;2023-07-22T12:08:53;100712.81;;;19.48;53.39
77583;BME280;66726;52.388;9.986;2023-07-22T12:11:27;100706.06;;;19.57;52.15
77583;BME280;66726;52.388;9.986;2023-07-22T12:14:09;100719.19;;;19.60;52.03
77583;BME280;66726;52.388;9.986;2023-07-22T12:16:45;100703.50;;;19.62;53.10
77583;BME280;66726;52.388;9.986;2023-07-22T12:19:17;100715.03;;;19.58;51.44
77583;BME280;66726;52.388;9.986;2023-07-22T12:21:49;100713.59;;;19.55;52.34
77583;BME280;66726;52.388;9.986;2023-07-22T12:24:22;100709.88;;;19.50;52.64
77583;BME280;66726;52.388;9.986;2023-07-22T12:26:54;100711.16;;;19.47;52.50
77583;BME280;66726;52.388;9.986;2023-07-22T12:29:26;100717.63;;;19.46;53.31
77583;BME280;66726;52.388;9.986;2023-07-22T12:31:58;100705.31;;;19.44;52.58
77583;BME280;66726;52.388;9.986;2023-07-22T12:34:30;100702.75;;;19.49;53.28
77583;BME280;66726;52.388;9.986;2023-07-22T12:37:02;100703.53;;;19.56;53.60
77583;BME280;66726;52.388;9.986;2023-07-22T12:39:35;100701.84;;;19.61;52.13
77583;BME280;66726;52.388;9.986;2023-07-22T12:42:07;100706.34;;;19.74;52.62
77583;BME280;66726;52.388;9.986;2023-07-22T12:44:39;100700.81;;;19.87;52.06
77583;BME280;66726;52.388;9.986;2023-07-22T12:47:12;100700.75;;;19.94;52.42
77583;BME280;66726;52.388;9.986;2023-07-22T12:49:44;100697.16;;;20.00;51.64
77583;BME280;66726;52.388;9.986;2023-07-22T12:52:16;100702.75;;;20.05;50.33
77583;BME280;66726;52.388;9.986;2023-07-22T12:54:49;100686.00;;;20.08;50.64
77583;BME280;66726;52.388;9.986;2023-07-22T12:57:21;100689.75;;;20.07;50.17
77583;BME280;66726;52.388;9.986;2023-07-22T12:59:53;100685.53;;;20.11;50.60
77583;BME280;66726;52.388;9.986;2023-07-22T13:02:25;100681.69;;;20.18;49.22
77583;BME280;66726;52.388;9.986;2023-07-22T13:04:57;100674.91;;;20.34;51.37
77583;BME280;66726;52.388;9.986;2023-07-22T13:07:29;100672.31;;;20.39;51.07
77583;BME280;66726;52.388;9.986;2023-07-22T13:10:02;100671.66;;;20.44;52.08
77583;BME280;66726;52.388;9.986;2023-07-22T13:12:37;100667.63;;;20.46;49.35
77583;BME280;66726;52.388;9.986;2023-07-22T13:15:11;100662.56;;;20.50;48.70
77583;BME280;66726;52.388;9.986;2023-07-22T13:17:43;100660.44;;;20.52;50.31
77583;BME280;66726;52.388;9.986;2023-07-22T13:20:16;100660.25;;;20.53;48.55
77583;BME280;66726;52.388;9.986;2023-07-22T13:22:48;100659.19;;;20.54;49.75